Time;durP1;ratioP1;P1;durP2;ratioP2;P2;SDS_P1;SDS_P2;PMS_P1;PMS_P2;Temp;Humidity;BMP_temperature;BMP_pressure;BME280_temperature;BME280_humidity;BME280_pressure;Samples;Min_cycle;Max_cycle;Signal;HPM_P1;HPM_P2
2024/04/06 00:00:19;;;;;;;2.4;1.5;;;;;;;;;;;;;
2024/04/06 00:02:45;;;;;;;3.1;1.4;;;;;;;;;;;;;
2024/04/06 00:05:12;;;;;;;1.2;0.9;;;;;;;;;;;;;
2024/04/06 00:07:34;;;;;;;1.9;1.3;;;;;;;;;;;;;
2024/04/06 00:10:00;;;;;;;3.7;1.3;;;;;;;;;;;;;
2024/04/06 00:12:25;;;;;;;2.1;1;;;;;;;;;;;;;
2024/04/06 00:14:50;;;;;;;1.7;1.1;;;;;;;;;;;;;
2024/04/06 00:17:18;;;;;;;1.8;1.2;;;;;;;;;;;;;
2024/04/06 00:19:40;;;;;;;1.6;1;;;;;;;;;;;;;
2024/04/06 00:22:05;;;;;;;3.4;1.4;;;;;;;;;;;;;
2024/04/06 00:24:30;;;;;;;2;1.2;;;;;;;;;;;;;
2024/04/06 00:26:55;;;;;;;4.7;1.6;;;;;;;;;;;;;
2024/04/06 00:29:20;;;;;;;1.7;1.3;;;;;;;;;;;;;
2024/04/06 00:31:45;;;;;;;1.8;1.1;;;;;;;;;;;;;
2024/04/06 00:34:10;;;;;;;2.4;1.2;;;;;;;;;;;;;
2024/04/06 00:36:35;;;;;;;1.4;1.2;;;;;;;;;;;;;
2024/04/06 00:39:01;;;;;;;1.7;1.2;;;;;;;;;;;;;
2024/04/06 00:41:26;;;;;;;1.3;0.9;;;;;;;;;;;;;
2024/04/06 00:43:51;;;;;;;1.7;1.2;;;;;;;;;;;;;
2024/04/06 00:46:19;;;;;;;1.9;1;;;;;;;;;;;;;
2024/04/06 00:48:45;;;;;;;2.5;1;;;;;;;;;;;;;
2024/04/06 00:51:09;;;;;;;1.7;1;;;;;;;;;;;;;
2024/04/06 00:53:34;;;;;;;1.1;1;;;;;;;;;;;;;
2024/04/06 00:55:59;;;;;;;1.5;0.8;;;;;;;;;;;;;
2024/04/06 00:58:25;;;;;;;2.3;0.8;;;;;;;;;;;;;
2024/04/06 01:00:50;;;;;;;1.1;0.9;;;;;;;;;;;;;
2024/04/06 01:03:15;;;;;;;1.5;1;;;;;;;;;;;;;
2024/04/06 01:05:40;;;;;;;2;1.2;;;;;;;;;;;;;
2024/04/06 01:08:05;;;;;;;1;0.7;;;;;;;;;;;;;
2024/04/06 01:10:30;;;;;;;1;0.8;;;;;;;;;;;;;
2024/04/06 01:12:56;;;;;;;1.9;0.9;;;;;;;;;;;;;
2024/04/06 01:15:21;;;;;;;2.9;1.1;;;;;;;;;;;;;
2024/04/06 01:17:46;;;;;;;2.3;1.3;;;;;;;;;;;;;
2024/04/06 01:20:11;;;;;;;1.7;1.2;;;;;;;;;;;;;
2024/04/06 01:22:36;;;;;;;1.6;1.1;;;;;;;;;;;;;
2024/04/06 01:25:04;;;;;;;2.3;1.2;;;;;;;;;;;;;
2024/04/06 01:27:28;;;;;;;2.9;1.3;;;;;;;;;;;;;
2024/04/06 01:29:52;;;;;;;2.1;1.1;;;;;;;;;;;;;
2024/04/06 01:32:17;;;;;;;1.2;1;;;;;;;;;;;;;
2024/04/06 01:34:42;;;;;;;1.6;1.1;;;;;;;;;;;;;
2024/04/06 01:37:07;;;;;;;2.8;0.9;;;;;;;;;;;;;
2024/04/06 01:39:32;;;;;;;1.1;1;;;;;;;;;;;;;
2024/04/06 01:41:57;;;;;;;1.6;0.9;;;;;;;;;;;;;
2024/04/06 01:44:22;;;;;;;1.1;1;;;;;;;;;;;;;
2024/04/06 01:46:47;;;;;;;1.2;1.1;;;;;;;;;;;;;
2024/04/06 01:49:12;;;;;;;1.3;0.9;;;;;;;;;;;;;
2024/04/06 01:51:37;;;;;;;2.1;1;;;;;;;;;;;;;
2024/04/06 01:54:03;;;;;;;3.6;1.3;;;;;;;;;;;;;
2024/04/06 01:56:28;;;;;;;1.8;1.1;;;;;;;;;;;;;
2024/04/06 01:58:55;;;;;;;1.7;1.1;;;;;;;;;;;;;
2024/04/06 02:01:18;;;;;;;1.9;0.9;;;;;;;;;;;;;
2024/04/06 02:03:43;;;;;;;1.2;1;;;;;;;;;;;;;
2024/04/06 02:06:08;;;;;;;1.5;1.2;;;;;;;;;;;;;
2024/04/06 02:08:33;;;;;;;1.7;1;;;;;;;;;;;;;
2024/04/06 02:10:59;;;;;;;2.2;1.3;;;;;;;;;;;;;
2024/04/06 02:13:24;;;;;;;1.5;1.1;;;;;;;;;;;;;
2024/04/06 02:15:49;;;;;;;1.2;1;;;;;;;;;;;;;
2024/04/06 02:18:14;;;;;;;1.5;1.1;;;;;;;;;;;;;
2024/04/06 02:20:39;;;;;;;1.2;1.1;;;;;;;;;;;;;
2024/04/06 02:23:04;;;;;;;1.8;1.1;;;;;;;;;;;;;
2024/04/06 02:25:29;;;;;;;2;1;;;;;;;;;;;;;
2024/04/06 02:27:54;;;;;;;4.2;1.2;;;;;;;;;;;;;
2024/04/06 02:30:19;;;;;;;1.3;1.2;;;;;;;;;;;;;
2024/04/06 02:32:44;;;;;;;3.2;1.4;;;;;;;;;;;;;
2024/04/06 02:35:09;;;;;;;2.3;1.2;;;;;;;;;;;;;
2024/04/06 02:37:35;;;;;;;3.3;1.1;;;;;;;;;;;;;
2024/04/06 02:40:00;;;;;;;2.2;1.1;;;;;;;;;;;;;
2024/04/06 02:42:25;;;;;;;1.1;1;;;;;;;;;;;;;
2024/04/06 02:44:50;;;;;;;3.3;1.3;;;;;;;;;;;;;
2024/04/06 02:47:15;;;;;;;1.5;1.1;;;;;;;;;;;;;
2024/04/06 02:49:41;;;;;;;1.6;1;;;;;;;;;;;;;
2024/04/06 02:52:06;;;;;;;2.6;0.9;;;;;;;;;;;;;
2024/04/06 02:54:31;;;;;;;1.7;0.9;;;;;;;;;;;;;
2024/04/06 02:56:56;;;;;;;1.7;0.9;;;;;;;;;;;;;
2024/04/06 02:59:21;;;;;;;1.3;1.2;;;;;;;;;;;;;
2024/04/06 03:01:46;;;;;;;2.6;1.1;;;;;;;;;;;;;
2024/04/06 03:04:11;;;;;;;1.6;1.1;;;;;;;;;;;;;
2024/04/06 03:06:36;;;;;;;3;1.3;;;;;;;;;;;;;
2024/04/06 03:09:03;;;;;;;1.8;1;;;;;;;;;;;;;
2024/04/06 03:11:26;;;;;;;1.1;1;;;;;;;;;;;;;
2024/04/06 03:13:52;;;;;;;1.7;1.2;;;;;;;;;;;;;
2024/04/06 03:16:17;;;;;;;2.8;1.1;;;;;;;;;;;;;
2024/04/06 03:18:42;;;;;;;2.4;1.3;;;;;;;;;;;;;
2024/04/06 03:21:08;;;;;;;1.2;1.1;;;;;;;;;;;;;
2024/04/06 03:23:32;;;;;;;2;1.1;;;;;;;;;;;;;
2024/04/06 03:25:58;;;;;;;2.7;1.3;;;;;;;;;;;;;
2024/04/06 03:28:23;;;;;;;1.6;1.2;;;;;;;;;;;;;
2024/04/06 03:30:48;;;;;;;1.5;1.2;;;;;;;;;;;;;
2024/04/06 03:33:13;;;;;;;1.8;1.1;;;;;;;;;;;;;
2024/04/06 03:35:38;;;;;;;1.8;1.4;;;;;;;;;;;;;
2024/04/06 03:38:03;;;;;;;3.1;1.1;;;;;;;;;;;;;
2024/04/06 03:40:28;;;;;;;1.9;1.3;;;;;;;;;;;;;
2024/04/06 03:42:53;;;;;;;1.8;1;;;;;;;;;;;;;
2024/04/06 03:45:18;;;;;;;2;1.2;;;;;;;;;;;;;
2024/04/06 03:47:43;;;;;;;1.9;1.2;;;;;;;;;;;;;
2024/04/06 03:50:08;;;;;;;2.8;1;;;;;;;;;;;;;
2024/04/06 03:52:34;;;;;;;1.4;1.2;;;;;;;;;;;;;
2024/04/06 03:54:59;;;;;;;1.9;1.5;;;;;;;;;;;;;
2024/04/06 03:57:24;;;;;;;1.7;1.5;;;;;;;;;;;;;
2024/04/06 03:59:49;;;;;;;2.8;1.5;;;;;;;;;;;;;
2024/04/06 04:02:32;;;;;;;2.7;2;;;;;;;;;;;;;
2024/04/06 04:04:57;;;;;;;3.4;2.4;;;;;;;;;;;;;
2024/04/06 04:07:22;;;;;;;2.6;2.3;;;;;;;;;;;;;
2024/04/06 04:09:47;;;;;;;2.4;2.1;;;;;;;;;;;;;
2024/04/06 04:12:12;;;;;;;3.2;1.5;;;;;;;;;;;;;
2024/04/06 04:14:38;;;;;;;2.5;1.4;;;;;;;;;;;;;
2024/04/06 04:17:03;;;;;;;2.1;1.3;;;;;;;;;;;;;
2024/04/06 04:19:28;;;;;;;3.6;1.3;;;;;;;;;;;;;
2024/04/06 04:21:53;;;;;;;1.6;1.3;;;;;;;;;;;;;
2024/04/06 04:24:19;;;;;;;2.4;1.4;;;;;;;;;;;;;
2024/04/06 04:26:44;;;;;;;2.3;1.6;;;;;;;;;;;;;
2024/04/06 04:29:08;;;;;;;2.3;1.6;;;;;;;;;;;;;
2024/04/06 04:31:34;;;;;;;1.6;1.5;;;;;;;;;;;;;
2024/04/06 04:33:59;;;;;;;1.2;1.1;;;;;;;;;;;;;
2024/04/06 04:36:24;;;;;;;2.1;1.4;;;;;;;;;;;;;
2024/04/06 04:38:49;;;;;;;4.9;2.1;;;;;;;;;;;;;
2024/04/06 04:41:14;;;;;;;3.2;2.9;;;;;;;;;;;;;
2024/04/06 04:43:39;;;;;;;4.8;2.1;;;;;;;;;;;;;
2024/04/06 04:46:04;;;;;;;4.3;2.6;;;;;;;;;;;;;
2024/04/06 04:48:30;;;;;;;3.6;2.2;;;;;;;;;;;;;
2024/04/06 04:50:55;;;;;;;3;1.9;;;;;;;;;;;;;
2024/04/06 04:53:20;;;;;;;2.6;1.5;;;;;;;;;;;;;
2024/04/06 04:55:45;;;;;;;2.5;1.6;;;;;;;;;;;;;
2024/04/06 04:58:10;;;;;;;2.4;1.5;;;;;;;;;;;;;
2024/04/06 05:00:35;;;;;;;3;1.4;;;;;;;;;;;;;
2024/04/06 05:03:01;;;;;;;2.2;1.4;;;;;;;;;;;;;
2024/04/06 05:05:25;;;;;;;3.8;2;;;;;;;;;;;;;
2024/04/06 05:07:51;;;;;;;4.1;1.7;;;;;;;;;;;;;
2024/04/06 05:10:16;;;;;;;1.9;1.5;;;;;;;;;;;;;
2024/04/06 05:12:41;;;;;;;2;1.3;;;;;;;;;;;;;
2024/04/06 05:15:06;;;;;;;3;1.2;;;;;;;;;;;;;
2024/04/06 05:17:31;;;;;;;1.2;1.1;;;;;;;;;;;;;
2024/04/06 05:19:56;;;;;;;1.2;1.1;;;;;;;;;;;;;
2024/04/06 05:22:21;;;;;;;1.9;1.3;;;;;;;;;;;;;
2024/04/06 05:24:46;;;;;;;2.2;1.3;;;;;;;;;;;;;
2024/04/06 05:27:11;;;;;;;2;1.4;;;;;;;;;;;;;
2024/04/06 05:29:36;;;;;;;2.7;1.3;;;;;;;;;;;;;
2024/04/06 05:32:02;;;;;;;1.7;1.5;;;;;;;;;;;;;
2024/04/06 05:34:26;;;;;;;4.4;1.8;;;;;;;;;;;;;
2024/04/06 05:36:52;;;;;;;3.1;2;;;;;;;;;;;;;
2024/04/06 05:39:17;;;;;;;2;1.6;;;;;;;;;;;;;
2024/04/06 05:41:42;;;;;;;3.4;1.7;;;;;;;;;;;;;
2024/04/06 05:44:07;;;;;;;2.9;1.5;;;;;;;;;;;;;
2024/04/06 05:46:32;;;;;;;2.8;1.7;;;;;;;;;;;;;
2024/04/06 05:48:59;;;;;;;1.9;1.5;;;;;;;;;;;;;
2024/04/06 05:51:22;;;;;;;6.9;2.1;;;;;;;;;;;;;
2024/04/06 05:53:48;;;;;;;2.6;1.8;;;;;;;;;;;;;
2024/04/06 05:56:12;;;;;;;2.8;1.6;;;;;;;;;;;;;
2024/04/06 05:58:39;;;;;;;7.4;2.8;;;;;;;;;;;;;
2024/04/06 06:01:02;;;;;;;7.3;4;;;;;;;;;;;;;
2024/04/06 06:03:27;;;;;;;6.2;3;;;;;;;;;;;;;
2024/04/06 06:05:53;;;;;;;3.9;2.8;;;;;;;;;;;;;
2024/04/06 06:08:18;;;;;;;6.3;1.8;;;;;;;;;;;;;
2024/04/06 06:10:43;;;;;;;4.1;2;;;;;;;;;;;;;
2024/04/06 06:13:08;;;;;;;3.2;1.8;;;;;;;;;;;;;
2024/04/06 06:15:33;;;;;;;4.2;1.7;;;;;;;;;;;;;
2024/04/06 06:17:58;;;;;;;5;1.8;;;;;;;;;;;;;
2024/04/06 06:20:24;;;;;;;1.8;1.6;;;;;;;;;;;;;
2024/04/06 06:22:48;;;;;;;2.5;1.6;;;;;;;;;;;;;
2024/04/06 06:25:13;;;;;;;5.4;2.1;;;;;;;;;;;;;
2024/04/06 06:27:39;;;;;;;2.1;1.4;;;;;;;;;;;;;
2024/04/06 06:30:04;;;;;;;2;1.2;;;;;;;;;;;;;
2024/04/06 06:32:29;;;;;;;3.8;1.3;;;;;;;;;;;;;
2024/04/06 06:34:54;;;;;;;2.7;1.3;;;;;;;;;;;;;
2024/04/06 06:37:19;;;;;;;2.2;0.9;;;;;;;;;;;;;
2024/04/06 06:39:44;;;;;;;2.8;1.4;;;;;;;;;;;;;
2024/04/06 06:42:10;;;;;;;1.7;1.1;;;;;;;;;;;;;
2024/04/06 06:44:34;;;;;;;2.6;1.1;;;;;;;;;;;;;
2024/04/06 06:47:01;;;;;;;1.5;0.9;;;;;;;;;;;;;
2024/04/06 06:49:25;;;;;;;1.3;0.6;;;;;;;;;;;;;
2024/04/06 06:51:50;;;;;;;1.2;0.8;;;;;;;;;;;;;
2024/04/06 06:54:15;;;;;;;1.5;0.7;;;;;;;;;;;;;
2024/04/06 06:56:40;;;;;;;2.1;0.9;;;;;;;;;;;;;
2024/04/06 06:59:05;;;;;;;0.7;0.7;;;;;;;;;;;;;
2024/04/06 07:01:31;;;;;;;1.3;0.9;;;;;;;;;;;;;
2024/04/06 07:03:56;;;;;;;1.3;0.8;;;;;;;;;;;;;
2024/04/06 07:06:22;;;;;;;0.9;0.9;;;;;;;;;;;;;
2024/04/06 07:08:46;;;;;;;0.9;0.9;;;;;;;;;;;;;
2024/04/06 07:11:11;;;;;;;3.2;1;;;;;;;;;;;;;
2024/04/06 07:15:05;;;;;;;2.2;0.9;;;;;;;;;;;;;
2024/04/06 07:17:29;;;;;;;3.4;1;;;;;;;;;;;;;
2024/04/06 07:19:54;;;;;;;1;0.8;;;;;;;;;;;;;
2024/04/06 07:22:19;;;;;;;3;0.9;;;;;;;;;;;;;
2024/04/06 07:24:44;;;;;;;1.7;0.9;;;;;;;;;;;;;
2024/04/06 07:27:09;;;;;;;2.2;1;;;;;;;;;;;;;
2024/04/06 07:29:35;;;;;;;1.3;0.7;;;;;;;;;;;;;
2024/04/06 07:32:00;;;;;;;1.4;1.1;;;;;;;;;;;;;
2024/04/06 07:34:25;;;;;;;2;1.1;;;;;;;;;;;;;
2024/04/06 07:36:50;;;;;;;1.7;1.1;;;;;;;;;;;;;
2024/04/06 07:39:15;;;;;;;0.9;0.9;;;;;;;;;;;;;
2024/04/06 07:41:40;;;;;;;1.4;0.7;;;;;;;;;;;;;
2024/04/06 07:44:05;;;;;;;0.8;0.8;;;;;;;;;;;;;
2024/04/06 07:46:30;;;;;;;2.6;0.9;;;;;;;;;;;;;
2024/04/06 07:48:56;;;;;;;1.1;0.7;;;;;;;;;;;;;
2024/04/06 07:51:21;;;;;;;1.3;1;;;;;;;;;;;;;
2024/04/06 07:53:46;;;;;;;2.3;1.1;;;;;;;;;;;;;
2024/04/06 07:56:11;;;;;;;1.7;0.9;;;;;;;;;;;;;
2024/04/06 07:58:36;;;;;;;1;0.7;;;;;;;;;;;;;
2024/04/06 08:01:02;;;;;;;1.4;0.8;;;;;;;;;;;;;
2024/04/06 08:03:27;;;;;;;1.2;0.8;;;;;;;;;;;;;
2024/04/06 08:05:52;;;;;;;3.8;0.8;;;;;;;;;;;;;
2024/04/06 08:08:17;;;;;;;0.8;0.8;;;;;;;;;;;;;
2024/04/06 08:10:43;;;;;;;0.8;0.7;;;;;;;;;;;;;
2024/04/06 08:13:08;;;;;;;1.5;0.6;;;;;;;;;;;;;
2024/04/06 08:15:33;;;;;;;1.3;0.7;;;;;;;;;;;;;
2024/04/06 08:17:58;;;;;;;1.1;0.6;;;;;;;;;;;;;
2024/04/06 08:20:23;;;;;;;0.9;0.9;;;;;;;;;;;;;
2024/04/06 08:22:48;;;;;;;0.8;0.7;;;;;;;;;;;;;
2024/04/06 08:25:14;;;;;;;1;0.8;;;;;;;;;;;;;
2024/04/06 08:27:38;;;;;;;0.8;0.7;;;;;;;;;;;;;
2024/04/06 08:30:04;;;;;;;1.2;0.7;;;;;;;;;;;;;
2024/04/06 08:32:28;;;;;;;2.3;0.8;;;;;;;;;;;;;
2024/04/06 08:34:53;;;;;;;1.9;1.1;;;;;;;;;;;;;
2024/04/06 08:37:18;;;;;;;1.1;0.7;;;;;;;;;;;;;
2024/04/06 08:39:43;;;;;;;1.2;0.8;;;;;;;;;;;;;
2024/04/06 08:42:09;;;;;;;1.6;0.8;;;;;;;;;;;;;
2024/04/06 08:44:34;;;;;;;0.9;0.7;;;;;;;;;;;;;
2024/04/06 08:46:59;;;;;;;0.6;0.6;;;;;;;;;;;;;
2024/04/06 08:49:25;;;;;;;1.1;0.9;;;;;;;;;;;;;
2024/04/06 08:51:50;;;;;;;1;0.8;;;;;;;;;;;;;
2024/04/06 08:54:15;;;;;;;2.2;0.7;;;;;;;;;;;;;
2024/04/06 08:56:40;;;;;;;1.1;0.7;;;;;;;;;;;;;
2024/04/06 08:59:05;;;;;;;1.1;0.9;;;;;;;;;;;;;
2024/04/06 09:01:30;;;;;;;1.4;0.8;;;;;;;;;;;;;
2024/04/06 09:03:56;;;;;;;0.8;0.8;;;;;;;;;;;;;
2024/04/06 09:06:20;;;;;;;0.9;0.7;;;;;;;;;;;;;
2024/04/06 09:08:45;;;;;;;1.2;0.6;;;;;;;;;;;;;
2024/04/06 09:11:12;;;;;;;1.9;0.8;;;;;;;;;;;;;
2024/04/06 09:13:36;;;;;;;1.6;0.9;;;;;;;;;;;;;
2024/04/06 09:16:01;;;;;;;0.6;0.6;;;;;;;;;;;;;
2024/04/06 09:18:26;;;;;;;0.9;0.6;;;;;;;;;;;;;
2024/04/06 09:20:51;;;;;;;1;0.6;;;;;;;;;;;;;
2024/04/06 09:23:16;;;;;;;0.9;0.7;;;;;;;;;;;;;
2024/04/06 09:25:41;;;;;;;0.5;0.5;;;;;;;;;;;;;
2024/04/06 09:28:06;;;;;;;0.6;0.6;;;;;;;;;;;;;
2024/04/06 09:30:32;;;;;;;1.9;0.7;;;;;;;;;;;;;
2024/04/06 09:32:57;;;;;;;0.8;0.6;;;;;;;;;;;;;
2024/04/06 09:35:22;;;;;;;0.5;0.5;;;;;;;;;;;;;
2024/04/06 09:37:47;;;;;;;0.7;0.7;;;;;;;;;;;;;
2024/04/06 09:40:12;;;;;;;0.9;0.7;;;;;;;;;;;;;
2024/04/06 09:42:37;;;;;;;1.2;0.6;;;;;;;;;;;;;
2024/04/06 09:45:02;;;;;;;1.7;0.7;;;;;;;;;;;;;
2024/04/06 09:47:27;;;;;;;0.5;0.5;;;;;;;;;;;;;
2024/04/06 09:49:52;;;;;;;1.2;0.8;;;;;;;;;;;;;
2024/04/06 09:52:18;;;;;;;0.9;0.6;;;;;;;;;;;;;
2024/04/06 09:54:43;;;;;;;0.9;0.7;;;;;;;;;;;;;
2024/04/06 09:57:08;;;;;;;0.8;0.6;;;;;;;;;;;;;
2024/04/06 09:59:33;;;;;;;1;0.5;;;;;;;;;;;;;
2024/04/06 10:01:58;;;;;;;1;0.6;;;;;;;;;;;;;
2024/04/06 10:04:23;;;;;;;2.5;0.7;;;;;;;;;;;;;
2024/04/06 10:06:48;;;;;;;3.1;0.7;;;;;;;;;;;;;
2024/04/06 10:09:13;;;;;;;0.9;0.6;;;;;;;;;;;;;
2024/04/06 10:11:39;;;;;;;6.5;1.1;;;;;;;;;;;;;
2024/04/06 10:14:04;;;;;;;0.7;0.6;;;;;;;;;;;;;
2024/04/06 10:16:28;;;;;;;0.5;0.5;;;;;;;;;;;;;
2024/04/06 10:18:53;;;;;;;1.4;0.5;;;;;;;;;;;;;
2024/04/06 10:21:19;;;;;;;1.7;0.7;;;;;;;;;;;;;
2024/04/06 10:23:44;;;;;;;0.5;0.5;;;;;;;;;;;;;
2024/04/06 10:26:09;;;;;;;0.4;0.4;;;;;;;;;;;;;
2024/04/06 10:28:34;;;;;;;1.1;0.5;;;;;;;;;;;;;
2024/04/06 10:30:59;;;;;;;0.5;0.4;;;;;;;;;;;;;
2024/04/06 10:33:24;;;;;;;1;0.6;;;;;;;;;;;;;
2024/04/06 10:35:51;;;;;;;1.4;0.7;;;;;;;;;;;;;
2024/04/06 10:38:14;;;;;;;18.8;2;;;;;;;;;;;;;
2024/04/06 10:40:40;;;;;;;0.7;0.7;;;;;;;;;;;;;
2024/04/06 10:43:05;;;;;;;0.9;0.5;;;;;;;;;;;;;
2024/04/06 10:45:30;;;;;;;2.3;1;;;;;;;;;;;;;
2024/04/06 10:47:55;;;;;;;0.6;0.6;;;;;;;;;;;;;
2024/04/06 10:50:20;;;;;;;1.8;0.7;;;;;;;;;;;;;
2024/04/06 10:52:47;;;;;;;0.4;0.4;;;;;;;;;;;;;
2024/04/06 10:55:19;;;;;;;1.3;0.4;;;;;;;;;;;;;
2024/04/06 10:57:35;;;;;;;1.1;0.6;;;;;;;;;;;;;
2024/04/06 11:00:00;;;;;;;0.5;0.5;;;;;;;;;;;;;
2024/04/06 11:02:26;;;;;;;1.6;0.7;;;;;;;;;;;;;
2024/04/06 11:04:51;;;;;;;1.7;0.5;;;;;;;;;;;;;
2024/04/06 11:07:16;;;;;;;1;0.7;;;;;;;;;;;;;
2024/04/06 11:09:41;;;;;;;1;0.6;;;;;;;;;;;;;
2024/04/06 11:12:06;;;;;;;0.5;0.5;;;;;;;;;;;;;
2024/04/06 11:14:31;;;;;;;1.2;0.5;;;;;;;;;;;;;
2024/04/06 11:16:57;;;;;;;0.6;0.4;;;;;;;;;;;;;
2024/04/06 11:19:22;;;;;;;0.7;0.7;;;;;;;;;;;;;
2024/04/06 11:21:47;;;;;;;1;0.5;;;;;;;;;;;;;
2024/04/06 11:24:12;;;;;;;0.5;0.5;;;;;;;;;;;;;
2024/04/06 11:26:37;;;;;;;0.9;0.6;;;;;;;;;;;;;
2024/04/06 11:29:03;;;;;;;1.1;0.6;;;;;;;;;;;;;
2024/04/06 11:31:28;;;;;;;0.6;0.6;;;;;;;;;;;;;
2024/04/06 11:33:53;;;;;;;0.5;0.5;;;;;;;;;;;;;
2024/04/06 11:36:18;;;;;;;1.7;0.7;;;;;;;;;;;;;
2024/04/06 11:38:43;;;;;;;0.8;0.7;;;;;;;;;;;;;
2024/04/06 11:41:08;;;;;;;0.9;0.5;;;;;;;;;;;;;
2024/04/06 11:43:33;;;;;;;0.7;0.5;;;;;;;;;;;;;
2024/04/06 11:45:58;;;;;;;1.1;0.6;;;;;;;;;;;;;
2024/04/06 11:48:23;;;;;;;0.8;0.6;;;;;;;;;;;;;
2024/04/06 11:50:49;;;;;;;1.4;0.6;;;;;;;;;;;;;
2024/04/06 11:53:14;;;;;;;1.8;0.7;;;;;;;;;;;;;
2024/04/06 11:55:39;;;;;;;1.4;0.6;;;;;;;;;;;;;
2024/04/06 11:58:04;;;;;;;1.3;0.6;;;;;;;;;;;;;
2024/04/06 12:00:29;;;;;;;1;0.6;;;;;;;;;;;;;
2024/04/06 12:02:55;;;;;;;1.2;0.5;;;;;;;;;;;;;
2024/04/06 12:05:20;;;;;;;1.6;1;;;;;;;;;;;;;
2024/04/06 12:07:44;;;;;;;0.8;0.5;;;;;;;;;;;;;
2024/04/06 12:10:10;;;;;;;1.3;0.6;;;;;;;;;;;;;
2024/04/06 12:12:35;;;;;;;1.4;0.5;;;;;;;;;;;;;
2024/04/06 12:15:00;;;;;;;0.5;0.5;;;;;;;;;;;;;
2024/04/06 12:17:27;;;;;;;0.6;0.6;;;;;;;;;;;;;
2024/04/06 12:19:50;;;;;;;1.5;0.6;;;;;;;;;;;;;
2024/04/06 12:22:16;;;;;;;1.1;0.4;;;;;;;;;;;;;
2024/04/06 12:24:40;;;;;;;0.6;0.6;;;;;;;;;;;;;
2024/04/06 12:27:05;;;;;;;1.8;0.5;;;;;;;;;;;;;
2024/04/06 12:29:30;;;;;;;0.8;0.6;;;;;;;;;;;;;
2024/04/06 12:31:56;;;;;;;0.9;0.7;;;;;;;;;;;;;
2024/04/06 12:34:21;;;;;;;1.8;0.5;;;;;;;;;;;;;
2024/04/06 12:36:46;;;;;;;0.6;0.6;;;;;;;;;;;;;
2024/04/06 12:39:11;;;;;;;0.8;0.6;;;;;;;;;;;;;
2024/04/06 12:41:36;;;;;;;1.1;0.6;;;;;;;;;;;;;
2024/04/06 12:44:02;;;;;;;0.8;0.4;;;;;;;;;;;;;
2024/04/06 12:46:26;;;;;;;0.7;0.7;;;;;;;;;;;;;
2024/04/06 12:48:52;;;;;;;0.5;0.5;;;;;;;;;;;;;
2024/04/06 12:51:17;;;;;;;1;0.6;;;;;;;;;;;;;
2024/04/06 12:53:42;;;;;;;1.6;0.7;;;;;;;;;;;;;
2024/04/06 12:56:07;;;;;;;2.1;0.6;;;;;;;;;;;;;
2024/04/06 12:58:32;;;;;;;0.8;0.6;;;;;;;;;;;;;
2024/04/06 13:00:57;;;;;;;1.4;0.5;;;;;;;;;;;;;
2024/04/06 13:03:22;;;;;;;1;0.6;;;;;;;;;;;;;
2024/04/06 13:05:48;;;;;;;1.5;1;;;;;;;;;;;;;
2024/04/06 13:08:12;;;;;;;1.5;0.7;;;;;;;;;;;;;
2024/04/06 13:10:37;;;;;;;1.2;0.6;;;;;;;;;;;;;
2024/04/06 13:13:03;;;;;;;1.7;0.6;;;;;;;;;;;;;
2024/04/06 13:15:28;;;;;;;1.1;0.5;;;;;;;;;;;;;
2024/04/06 13:17:54;;;;;;;0.9;0.6;;;;;;;;;;;;;
2024/04/06 13:20:25;;;;;;;0.5;0.5;;;;;;;;;;;;;
2024/04/06 13:22:43;;;;;;;0.7;0.6;;;;;;;;;;;;;
2024/04/06 13:25:09;;;;;;;0.8;0.6;;;;;;;;;;;;;
2024/04/06 13:27:34;;;;;;;1.1;0.4;;;;;;;;;;;;;
2024/04/06 13:29:59;;;;;;;0.9;0.6;;;;;;;;;;;;;
2024/04/06 13:32:24;;;;;;;1.1;0.4;;;;;;;;;;;;;
2024/04/06 13:34:49;;;;;;;1.2;0.6;;;;;;;;;;;;;
2024/04/06 13:37:14;;;;;;;0.6;0.6;;;;;;;;;;;;;
2024/04/06 13:39:39;;;;;;;1;0.6;;;;;;;;;;;;;
2024/04/06 13:42:06;;;;;;;2.3;0.6;;;;;;;;;;;;;
2024/04/06 13:44:31;;;;;;;0.7;0.7;;;;;;;;;;;;;
2024/04/06 13:46:56;;;;;;;1.6;0.6;;;;;;;;;;;;;
2024/04/06 13:49:21;;;;;;;1.1;0.8;;;;;;;;;;;;;
2024/04/06 13:51:46;;;;;;;0.6;0.5;;;;;;;;;;;;;
2024/04/06 13:54:12;;;;;;;0.8;0.5;;;;;;;;;;;;;
2024/04/06 13:56:37;;;;;;;1.7;0.6;;;;;;;;;;;;;
2024/04/06 13:59:03;;;;;;;1.6;0.6;;;;;;;;;;;;;
2024/04/06 14:01:27;;;;;;;0.6;0.5;;;;;;;;;;;;;
2024/04/06 14:03:53;;;;;;;0.7;0.5;;;;;;;;;;;;;
2024/04/06 14:06:17;;;;;;;0.5;0.5;;;;;;;;;;;;;
2024/04/06 14:08:42;;;;;;;0.5;0.5;;;;;;;;;;;;;
2024/04/06 14:11:07;;;;;;;1.4;0.6;;;;;;;;;;;;;
2024/04/06 14:13:34;;;;;;;0.6;0.6;;;;;;;;;;;;;
2024/04/06 14:15:57;;;;;;;0.7;0.6;;;;;;;;;;;;;
2024/04/06 14:18:23;;;;;;;0.9;0.5;;;;;;;;;;;;;
2024/04/06 14:20:48;;;;;;;1.3;0.6;;;;;;;;;;;;;
2024/04/06 14:23:13;;;;;;;2.2;0.8;;;;;;;;;;;;;
2024/04/06 14:25:38;;;;;;;2.8;0.7;;;;;;;;;;;;;
2024/04/06 14:28:03;;;;;;;0.9;0.7;;;;;;;;;;;;;
2024/04/06 14:30:32;;;;;;;0.7;0.5;;;;;;;;;;;;;
2024/04/06 14:32:53;;;;;;;1.5;0.7;;;;;;;;;;;;;
2024/04/06 14:35:19;;;;;;;1.3;0.7;;;;;;;;;;;;;
2024/04/06 14:37:44;;;;;;;1.6;0.5;;;;;;;;;;;;;
2024/04/06 14:40:09;;;;;;;1.4;0.8;;;;;;;;;;;;;
2024/04/06 14:42:34;;;;;;;0.7;0.7;;;;;;;;;;;;;
2024/04/06 14:44:59;;;;;;;1.5;0.5;;;;;;;;;;;;;
2024/04/06 14:47:24;;;;;;;2.2;1.2;;;;;;;;;;;;;
2024/04/06 14:49:49;;;;;;;0.8;0.8;;;;;;;;;;;;;
2024/04/06 14:52:14;;;;;;;0.6;0.6;;;;;;;;;;;;;
2024/04/06 14:54:39;;;;;;;0.6;0.6;;;;;;;;;;;;;
2024/04/06 14:57:04;;;;;;;2.3;0.6;;;;;;;;;;;;;
2024/04/06 14:59:30;;;;;;;4.3;1.2;;;;;;;;;;;;;
2024/04/06 15:01:55;;;;;;;1.8;0.7;;;;;;;;;;;;;
2024/04/06 15:04:20;;;;;;;0.9;0.7;;;;;;;;;;;;;
2024/04/06 15:06:45;;;;;;;0.7;0.7;;;;;;;;;;;;;
2024/04/06 15:09:10;;;;;;;0.8;0.6;;;;;;;;;;;;;
2024/04/06 15:11:35;;;;;;;0.7;0.6;;;;;;;;;;;;;
2024/04/06 15:14:00;;;;;;;1.6;0.7;;;;;;;;;;;;;
2024/04/06 15:16:25;;;;;;;1.2;0.8;;;;;;;;;;;;;
2024/04/06 15:18:50;;;;;;;1.3;0.7;;;;;;;;;;;;;
2024/04/06 15:21:15;;;;;;;1.4;0.8;;;;;;;;;;;;;
2024/04/06 15:23:40;;;;;;;0.6;0.6;;;;;;;;;;;;;
2024/04/06 15:26:06;;;;;;;1.1;0.6;;;;;;;;;;;;;
2024/04/06 15:28:31;;;;;;;0.9;0.8;;;;;;;;;;;;;
2024/04/06 15:30:56;;;;;;;1.8;0.6;;;;;;;;;;;;;
2024/04/06 15:33:21;;;;;;;0.6;0.6;;;;;;;;;;;;;
2024/04/06 15:35:47;;;;;;;0.8;0.6;;;;;;;;;;;;;
2024/04/06 15:38:12;;;;;;;2;0.7;;;;;;;;;;;;;
2024/04/06 15:40:37;;;;;;;1;0.6;;;;;;;;;;;;;
2024/04/06 15:43:02;;;;;;;0.7;0.6;;;;;;;;;;;;;
2024/04/06 15:45:27;;;;;;;0.7;0.7;;;;;;;;;;;;;
2024/04/06 15:47:52;;;;;;;1.5;0.7;;;;;;;;;;;;;
2024/04/06 15:50:17;;;;;;;0.5;0.5;;;;;;;;;;;;;
2024/04/06 15:52:42;;;;;;;2.2;0.9;;;;;;;;;;;;;
2024/04/06 15:55:07;;;;;;;1.2;1;;;;;;;;;;;;;
2024/04/06 15:57:32;;;;;;;2;1;;;;;;;;;;;;;
2024/04/06 15:59:58;;;;;;;1;0.8;;;;;;;;;;;;;
2024/04/06 16:02:23;;;;;;;0.7;0.7;;;;;;;;;;;;;
2024/04/06 16:04:48;;;;;;;1;0.7;;;;;;;;;;;;;
2024/04/06 16:07:13;;;;;;;2.2;1.1;;;;;;;;;;;;;
2024/04/06 16:09:38;;;;;;;2.4;1.5;;;;;;;;;;;;;
2024/04/06 16:12:04;;;;;;;2.1;1.4;;;;;;;;;;;;;
2024/04/06 16:14:28;;;;;;;2;0.9;;;;;;;;;;;;;
2024/04/06 16:16:54;;;;;;;1.3;1;;;;;;;;;;;;;
2024/04/06 16:19:19;;;;;;;1.9;1.1;;;;;;;;;;;;;
2024/04/06 16:21:44;;;;;;;3.2;1.9;;;;;;;;;;;;;
2024/04/06 16:24:09;;;;;;;6.8;2.8;;;;;;;;;;;;;
2024/04/06 16:26:34;;;;;;;3.4;1.8;;;;;;;;;;;;;
2024/04/06 16:28:59;;;;;;;2.6;1.4;;;;;;;;;;;;;
2024/04/06 16:31:24;;;;;;;4.3;1.7;;;;;;;;;;;;;
2024/04/06 16:33:49;;;;;;;3.6;2.4;;;;;;;;;;;;;
2024/04/06 16:36:15;;;;;;;2.7;1.4;;;;;;;;;;;;;
2024/04/06 16:38:40;;;;;;;1.9;0.9;;;;;;;;;;;;;
2024/04/06 16:41:05;;;;;;;0.8;0.7;;;;;;;;;;;;;
2024/04/06 16:43:30;;;;;;;1.3;0.6;;;;;;;;;;;;;
2024/04/06 16:45:56;;;;;;;1.7;0.8;;;;;;;;;;;;;
2024/04/06 16:48:20;;;;;;;1.4;0.6;;;;;;;;;;;;;
2024/04/06 16:50:46;;;;;;;0.7;0.6;;;;;;;;;;;;;
2024/04/06 16:53:11;;;;;;;2.2;1.2;;;;;;;;;;;;;
2024/04/06 16:55:36;;;;;;;3.2;1.7;;;;;;;;;;;;;
2024/04/06 16:58:01;;;;;;;3.6;2.1;;;;;;;;;;;;;
2024/04/06 17:00:26;;;;;;;4.2;3.8;;;;;;;;;;;;;
2024/04/06 17:02:51;;;;;;;3.7;1.8;;;;;;;;;;;;;
2024/04/06 17:05:16;;;;;;;1.6;1.2;;;;;;;;;;;;;
2024/04/06 17:07:41;;;;;;;1.5;0.8;;;;;;;;;;;;;
2024/04/06 17:10:06;;;;;;;2.2;1.1;;;;;;;;;;;;;
2024/04/06 17:12:32;;;;;;;1.6;0.7;;;;;;;;;;;;;
2024/04/06 17:14:57;;;;;;;0.7;0.7;;;;;;;;;;;;;
2024/04/06 17:17:22;;;;;;;1.2;0.8;;;;;;;;;;;;;
2024/04/06 17:19:47;;;;;;;2.6;1.6;;;;;;;;;;;;;
2024/04/06 17:22:12;;;;;;;2.7;1.5;;;;;;;;;;;;;
2024/04/06 17:24:38;;;;;;;4.2;3.1;;;;;;;;;;;;;
2024/04/06 17:27:02;;;;;;;4.7;3.4;;;;;;;;;;;;;
2024/04/06 17:29:27;;;;;;;5;2.9;;;;;;;;;;;;;
2024/04/06 17:31:52;;;;;;;7.7;3.3;;;;;;;;;;;;;
2024/04/06 17:34:17;;;;;;;4.8;2.7;;;;;;;;;;;;;
2024/04/06 17:36:42;;;;;;;4.6;2.1;;;;;;;;;;;;;
2024/04/06 17:39:12;;;;;;;6.1;2.5;;;;;;;;;;;;;
2024/04/06 17:41:33;;;;;;;5.7;2.5;;;;;;;;;;;;;
2024/04/06 17:43:58;;;;;;;2.8;1.4;;;;;;;;;;;;;
2024/04/06 17:46:23;;;;;;;2.7;1.6;;;;;;;;;;;;;
2024/04/06 17:48:48;;;;;;;6.2;1.9;;;;;;;;;;;;;
2024/04/06 17:51:13;;;;;;;13.4;7.1;;;;;;;;;;;;;
2024/04/06 17:53:38;;;;;;;11;6.4;;;;;;;;;;;;;
2024/04/06 17:56:04;;;;;;;25.6;3.6;;;;;;;;;;;;;
2024/04/06 17:58:29;;;;;;;32.6;4.6;;;;;;;;;;;;;
2024/04/06 18:00:54;;;;;;;28.2;3.9;;;;;;;;;;;;;
2024/04/06 18:03:20;;;;;;;42.7;4.7;;;;;;;;;;;;;
2024/04/06 18:05:44;;;;;;;12.7;3;;;;;;;;;;;;;
2024/04/06 18:08:09;;;;;;;10.3;3.7;;;;;;;;;;;;;
2024/04/06 18:10:34;;;;;;;5.2;1.9;;;;;;;;;;;;;
2024/04/06 18:12:59;;;;;;;5.4;2.8;;;;;;;;;;;;;
2024/04/06 18:15:26;;;;;;;5;2.3;;;;;;;;;;;;;
2024/04/06 18:17:50;;;;;;;4.4;2.5;;;;;;;;;;;;;
2024/04/06 18:20:16;;;;;;;3.8;2.3;;;;;;;;;;;;;
2024/04/06 18:22:40;;;;;;;4.7;1.8;;;;;;;;;;;;;
2024/04/06 18:25:06;;;;;;;3;1.6;;;;;;;;;;;;;
2024/04/06 18:27:30;;;;;;;3.6;1.4;;;;;;;;;;;;;
2024/04/06 18:29:55;;;;;;;2.1;1.4;;;;;;;;;;;;;
2024/04/06 18:32:21;;;;;;;3.3;1.6;;;;;;;;;;;;;
2024/04/06 18:34:46;;;;;;;4.3;3;;;;;;;;;;;;;
2024/04/06 18:37:12;;;;;;;4.6;4;;;;;;;;;;;;;
2024/04/06 18:39:36;;;;;;;5.7;3.8;;;;;;;;;;;;;
2024/04/06 18:42:02;;;;;;;4.6;3.4;;;;;;;;;;;;;
2024/04/06 18:44:27;;;;;;;3.3;2.2;;;;;;;;;;;;;
2024/04/06 18:46:51;;;;;;;2.4;1.9;;;;;;;;;;;;;
2024/04/06 18:49:17;;;;;;;3;2;;;;;;;;;;;;;
2024/04/06 18:51:42;;;;;;;2.6;2.1;;;;;;;;;;;;;
2024/04/06 18:54:07;;;;;;;5.5;3;;;;;;;;;;;;;
2024/04/06 18:56:33;;;;;;;5.3;3.5;;;;;;;;;;;;;
2024/04/06 18:58:57;;;;;;;4.3;3.2;;;;;;;;;;;;;
2024/04/06 19:01:22;;;;;;;4.8;3.5;;;;;;;;;;;;;
2024/04/06 19:03:47;;;;;;;7.2;5.3;;;;;;;;;;;;;
2024/04/06 19:06:12;;;;;;;7.7;4.5;;;;;;;;;;;;;
2024/04/06 19:08:38;;;;;;;4.8;3.2;;;;;;;;;;;;;
2024/04/06 19:11:03;;;;;;;5.3;3.1;;;;;;;;;;;;;
2024/04/06 19:13:28;;;;;;;4;2.9;;;;;;;;;;;;;
2024/04/06 19:15:53;;;;;;;4.4;2.7;;;;;;;;;;;;;
2024/04/06 19:18:18;;;;;;;6.6;2.9;;;;;;;;;;;;;
2024/04/06 19:20:43;;;;;;;3.4;2.9;;;;;;;;;;;;;
2024/04/06 19:23:08;;;;;;;4;2.5;;;;;;;;;;;;;
2024/04/06 19:25:35;;;;;;;4.2;2.9;;;;;;;;;;;;;
2024/04/06 19:27:59;;;;;;;5.8;3.5;;;;;;;;;;;;;
2024/04/06 19:30:24;;;;;;;3.2;2.9;;;;;;;;;;;;;
2024/04/06 19:32:49;;;;;;;4.5;3.1;;;;;;;;;;;;;
2024/04/06 19:35:14;;;;;;;4.6;3.3;;;;;;;;;;;;;
2024/04/06 19:37:39;;;;;;;3.8;2.7;;;;;;;;;;;;;
2024/04/06 19:40:04;;;;;;;9.2;4.9;;;;;;;;;;;;;
2024/04/06 19:42:29;;;;;;;9;4.6;;;;;;;;;;;;;
2024/04/06 19:44:54;;;;;;;4.9;2.3;;;;;;;;;;;;;
2024/04/06 19:47:19;;;;;;;4.1;2.9;;;;;;;;;;;;;
2024/04/06 19:49:44;;;;;;;5;3.6;;;;;;;;;;;;;
2024/04/06 19:52:10;;;;;;;5.1;3.4;;;;;;;;;;;;;
2024/04/06 19:54:35;;;;;;;5.7;3.5;;;;;;;;;;;;;
2024/04/06 19:57:00;;;;;;;5.2;4;;;;;;;;;;;;;
2024/04/06 19:59:25;;;;;;;6.7;3.5;;;;;;;;;;;;;
2024/04/06 20:01:51;;;;;;;3.6;2.8;;;;;;;;;;;;;
2024/04/06 20:04:15;;;;;;;5.3;3;;;;;;;;;;;;;
2024/04/06 20:06:41;;;;;;;2.6;1.9;;;;;;;;;;;;;
2024/04/06 20:09:06;;;;;;;2.1;1.9;;;;;;;;;;;;;
2024/04/06 20:11:31;;;;;;;2.2;1.7;;;;;;;;;;;;;
2024/04/06 20:13:56;;;;;;;3.2;1.7;;;;;;;;;;;;;
2024/04/06 20:16:21;;;;;;;3.9;1.9;;;;;;;;;;;;;
2024/04/06 20:18:47;;;;;;;2.7;2;;;;;;;;;;;;;
2024/04/06 20:21:11;;;;;;;3.9;1.7;;;;;;;;;;;;;
2024/04/06 20:26:05;;;;;;;7.4;3.9;;;;;;;;;;;;;
2024/04/06 20:28:27;;;;;;;7.2;3.8;;;;;;;;;;;;;
2024/04/06 20:30:52;;;;;;;5.8;3.3;;;;;;;;;;;;;
2024/04/06 20:33:17;;;;;;;4.1;2.4;;;;;;;;;;;;;